createdAt,value
2022-09-17T00:04:55.859Z,95156.00
2022-09-17T00:10:24.312Z,95162.00
2022-09-17T00:15:52.614Z,95159.00
2022-09-17T00:21:21.337Z,95153.00
2022-09-17T00:26:50.305Z,95150.00
2022-09-17T00:32:18.226Z,95145.00
2022-09-17T00:37:46.004Z,95161.00
2022-09-17T00:43:13.821Z,95156.00
2022-09-17T00:48:41.698Z,95167.00
2022-09-17T00:54:11.940Z,95170.00
2022-09-17T00:59:39.876Z,95171.00
2022-09-17T01:05:08.845Z,95176.00
2022-09-17T01:10:51.521Z,95179.00
2022-09-17T01:16:44.680Z,95180.00
2022-09-17T01:22:30.404Z,95178.00
2022-09-17T01:28:52.234Z,95166.00
2022-09-17T01:34:47.137Z,95172.00
2022-09-17T01:40:47.411Z,95170.00
2022-09-17T01:46:28.005Z,95156.00
2022-09-17T01:51:56.538Z,95154.00
2022-09-17T01:57:45.722Z,95159.00
2022-09-17T02:03:22.539Z,95158.00
2022-09-17T02:08:57.753Z,95162.00
2022-09-17T02:14:35.669Z,95156.00
2022-09-17T02:20:04.331Z,95153.00
2022-09-17T02:25:43.477Z,95166.00
2022-09-17T02:31:12.017Z,95146.00
2022-09-17T02:36:39.824Z,95145.00
2022-09-17T02:42:39.113Z,95128.00
2022-09-17T02:48:50.414Z,95122.00
2022-09-17T02:54:52.986Z,95117.00
2022-09-17T03:00:23.910Z,95098.00
2022-09-17T03:05:52.734Z,95100.00
2022-09-17T03:11:21.781Z,95103.00
2022-09-17T03:16:49.490Z,95103.00
2022-09-17T03:22:17.751Z,95106.00
2022-09-17T03:27:45.890Z,95107.00
2022-09-17T03:33:14.456Z,95106.00
2022-09-17T03:38:42.354Z,95103.00
2022-09-17T03:44:13.214Z,95111.00
2022-09-17T03:49:41.023Z,95118.00
2022-09-17T03:55:09.084Z,95116.00
2022-09-17T04:00:37.638Z,95118.00
2022-09-17T04:06:05.791Z,95111.00
2022-09-17T04:11:34.209Z,95119.00
2022-09-17T04:17:02.284Z,95117.00
2022-09-17T04:22:30.051Z,95105.00
2022-09-17T04:27:57.935Z,95110.00
2022-09-17T04:33:26.259Z,95122.00
2022-09-17T04:38:54.229Z,95152.00
2022-09-17T04:44:22.931Z,95149.00
2022-09-17T04:49:50.734Z,95156.00
2022-09-17T04:55:19.048Z,95183.00
2022-09-17T05:00:46.874Z,95206.00
2022-09-17T05:06:14.820Z,95203.00
2022-09-17T05:11:43.283Z,95203.00
2022-09-17T05:17:11.096Z,95209.00
2022-09-17T05:22:48.103Z,95226.00
2022-09-17T05:28:15.954Z,95231.00
2022-09-17T05:33:43.798Z,95248.00
2022-09-17T05:39:11.669Z,95256.00
2022-09-17T05:44:39.823Z,95265.00
2022-09-17T05:50:07.811Z,95262.00
2022-09-17T05:55:35.704Z,95270.00
2022-09-17T06:01:03.689Z,95268.00
2022-09-17T06:06:32.033Z,95275.00
2022-09-17T06:11:59.671Z,95272.00
2022-09-17T06:17:27.524Z,95261.00
2022-09-17T06:22:59.088Z,95264.00
2022-09-17T06:28:28.018Z,95272.00
2022-09-17T06:33:58.505Z,95267.00
2022-09-17T06:39:26.760Z,95265.00
2022-09-17T06:44:55.538Z,95261.00
2022-09-17T06:50:23.913Z,95254.00
2022-09-17T06:55:51.971Z,95255.00
2022-09-17T07:01:20.213Z,95254.00
2022-09-17T07:06:48.689Z,95261.00
2022-09-17T07:12:16.751Z,95254.00
2022-09-17T07:17:47.558Z,95270.00
2022-09-17T07:23:16.954Z,95264.00
2022-09-17T07:28:45.522Z,95272.00
2022-09-17T07:34:14.885Z,95266.00
2022-09-17T07:39:44.140Z,95274.00
2022-09-17T07:45:12.279Z,95259.00
2022-09-17T07:50:40.178Z,95256.00
2022-09-17T07:56:11.819Z,95262.00
2022-09-17T08:01:40.925Z,95256.00
2022-09-17T08:07:13.320Z,95261.00
2022-09-17T08:12:41.469Z,95277.00
2022-09-17T08:18:10.430Z,95289.00
2022-09-17T08:23:41.626Z,95283.00
2022-09-17T08:29:11.346Z,95273.00
2022-09-17T08:34:40.480Z,95280.00
2022-09-17T08:40:15.735Z,95284.00
2022-09-17T08:45:44.789Z,95302.00
2022-09-17T08:51:56.392Z,95295.00
2022-09-17T08:57:48.418Z,95299.00
2022-09-17T09:03:38.273Z,95306.00
2022-09-17T09:09:15.296Z,95316.00
2022-09-17T09:15:03.647Z,95319.00
2022-09-17T09:20:51.938Z,95325.00
2022-09-17T09:26:45.210Z,95329.00
2022-09-17T09:32:21.573Z,95317.00
2022-09-17T09:37:59.217Z,95321.00
2022-09-17T09:44:06.296Z,95329.00
2022-09-17T09:50:03.997Z,95335.00
2022-09-17T09:56:05.983Z,95342.00
2022-09-17T10:01:36.997Z,95334.00
2022-09-17T10:07:12.432Z,95346.00
2022-09-17T10:12:40.250Z,95347.00
2022-09-17T10:18:21.757Z,95351.00
2022-09-17T10:23:51.233Z,95360.00
2022-09-17T10:29:21.057Z,95360.00
2022-09-17T10:35:27.623Z,95356.00
2022-09-17T10:41:11.291Z,95346.00
2022-09-17T10:46:40.597Z,95341.00
2022-09-17T10:52:23.899Z,95341.00
2022-09-17T10:58:09.652Z,95336.00
2022-09-17T11:04:18.810Z,95337.00
2022-09-17T11:10:07.646Z,95334.00
2022-09-17T11:16:08.573Z,95331.00
2022-09-17T11:21:49.211Z,95321.00
2022-09-17T11:28:01.436Z,95329.00
2022-09-17T11:34:01.832Z,95333.00
2022-09-17T11:39:59.219Z,95327.00
2022-09-17T11:45:41.733Z,95353.00
2022-09-17T11:51:24.726Z,95337.00
2022-09-17T11:57:17.335Z,95324.00
2022-09-17T12:03:24.993Z,95314.00
2022-09-17T12:09:21.348Z,95315.00
2022-09-17T12:15:13.860Z,95311.00
2022-09-17T12:20:46.283Z,95312.00
2022-09-17T12:27:01.146Z,95314.00
2022-09-17T12:32:50.498Z,95317.00
2022-09-17T12:38:59.438Z,95301.00
2022-09-17T12:45:17.958Z,95298.00
2022-09-17T12:51:06.937Z,95289.00
2022-09-17T12:56:57.063Z,95293.00
2022-09-17T13:02:38.064Z,95286.00
2022-09-17T13:08:32.970Z,95293.00
2022-09-17T13:14:32.172Z,95281.00
2022-09-17T13:20:06.271Z,95285.00
2022-09-17T13:25:34.275Z,95286.00
2022-09-17T13:31:04.414Z,95275.00
2022-09-17T13:36:47.865Z,95277.00
2022-09-17T13:42:22.657Z,95278.00
2022-09-17T13:48:04.013Z,95285.00
2022-09-17T13:53:32.009Z,95291.00
2022-09-17T13:59:10.586Z,95277.00
2022-09-17T14:04:41.754Z,95284.00
2022-09-17T14:10:40.986Z,95257.00
2022-09-17T14:16:40.739Z,95250.00
2022-09-17T14:22:08.676Z,95243.00
2022-09-17T14:27:58.630Z,95242.00
2022-09-17T14:33:32.310Z,95238.00
2022-09-17T14:39:00.524Z,95291.00
2022-09-17T14:44:33.240Z,95289.00
2022-09-17T14:50:25.728Z,95289.00
2022-09-17T14:55:53.505Z,95290.00
2022-09-17T15:01:27.754Z,95293.00
2022-09-17T15:07:11.745Z,95305.00
2022-09-17T15:12:40.152Z,95315.00
2022-09-17T15:18:12.863Z,95315.00
2022-09-17T15:23:42.871Z,95327.00
2022-09-17T15:29:15.195Z,95329.00
2022-09-17T15:34:43.422Z,95334.00
2022-09-17T15:40:39.435Z,95346.00
2022-09-17T15:46:28.253Z,95359.00
2022-09-17T15:51:56.321Z,95357.00
2022-09-17T15:57:27.810Z,95351.00
2022-09-17T16:02:56.071Z,95355.00
2022-09-17T16:08:25.017Z,95355.00
2022-09-17T16:13:55.756Z,95350.00
2022-09-17T16:19:23.846Z,95354.00
2022-09-17T16:24:52.194Z,95362.00
2022-09-17T16:30:22.841Z,95355.00
2022-09-17T16:35:50.688Z,95366.00
2022-09-17T16:41:19.012Z,95364.00
2022-09-17T16:46:47.065Z,95375.00
2022-09-17T16:52:15.159Z,95377.00
2022-09-17T16:57:43.545Z,95384.00
2022-09-17T17:03:16.268Z,95397.00
2022-09-17T17:08:44.568Z,95386.00
2022-09-17T17:14:14.944Z,95398.00
2022-09-17T17:19:43.455Z,95404.00
2022-09-17T17:25:14.108Z,95407.00
2022-09-17T17:30:42.026Z,95404.00
2022-09-17T17:36:11.455Z,95412.00
2022-09-17T17:41:39.603Z,95427.00
2022-09-17T17:47:07.746Z,95437.00
2022-09-17T17:52:39.172Z,95435.00
2022-09-17T17:58:07.622Z,95437.00
2022-09-17T18:03:35.682Z,95454.00
2022-09-17T18:09:05.037Z,95460.00
2022-09-17T18:14:33.238Z,95476.00
2022-09-17T18:20:01.301Z,95480.00
2022-09-17T18:25:29.218Z,95481.00
2022-09-17T18:31:06.402Z,95493.00
2022-09-17T18:36:36.472Z,95502.00
2022-09-17T18:42:04.517Z,95492.00
2022-09-17T18:47:32.711Z,95508.00
2022-09-17T18:53:01.381Z,95506.00
2022-09-17T18:58:29.114Z,95509.00
2022-09-17T19:03:58.620Z,95502.00
2022-09-17T19:09:26.448Z,95502.00
2022-09-17T19:14:55.199Z,95511.00
2022-09-17T19:20:23.978Z,95508.00
2022-09-17T19:25:51.802Z,95500.00
2022-09-17T19:31:20.576Z,95494.00
2022-09-17T19:36:49.055Z,95496.00
2022-09-17T19:42:17.380Z,95485.00
2022-09-17T19:47:46.100Z,95483.00
2022-09-17T19:53:15.077Z,95483.00
2022-09-17T19:58:43.903Z,95496.00
2022-09-17T20:04:11.813Z,95490.00
2022-09-17T20:09:39.611Z,95477.00
2022-09-17T20:15:08.312Z,95466.00
2022-09-17T20:20:42.074Z,95476.00
2022-09-17T20:26:11.688Z,95482.00
2022-09-17T20:31:39.732Z,95506.00
2022-09-17T20:37:13.472Z,95496.00
2022-09-17T20:42:42.109Z,95487.00
2022-09-17T20:48:09.991Z,95485.00
2022-09-17T20:53:38.829Z,95483.00
2022-09-17T20:59:17.508Z,95494.00
2022-09-17T21:04:45.866Z,95493.00
2022-09-17T21:10:14.304Z,95492.00
2022-09-17T21:15:42.395Z,95506.00
2022-09-17T21:21:18.285Z,95510.00
2022-09-17T21:26:46.457Z,95519.00
2022-09-17T21:32:14.211Z,95509.00
2022-09-17T21:37:42.292Z,95515.00
2022-09-17T21:43:11.151Z,95517.00
2022-09-17T21:48:45.784Z,95514.00
2022-09-17T21:54:17.074Z,95515.00
2022-09-17T21:59:45.796Z,95497.00
2022-09-17T22:05:13.776Z,95505.00
2022-09-17T22:10:41.999Z,95493.00
2022-09-17T22:16:11.341Z,95507.00
2022-09-17T22:21:47.292Z,95503.00
2022-09-17T22:27:15.182Z,95511.00
2022-09-17T22:32:42.914Z,95514.00
2022-09-17T22:38:10.702Z,95517.00
2022-09-17T22:43:38.822Z,95515.00
2022-09-17T22:49:08.913Z,95520.00
2022-09-17T22:54:40.929Z,95512.00
2022-09-17T23:00:09.694Z,95519.00
2022-09-17T23:05:37.941Z,95528.00
2022-09-17T23:11:07.934Z,95540.00
2022-09-17T23:16:40.329Z,95536.00
2022-09-17T23:22:08.445Z,95553.00
2022-09-17T23:27:36.141Z,95550.00
2022-09-17T23:33:04.001Z,95548.00
2022-09-17T23:38:32.073Z,95551.00
2022-09-17T23:44:03.705Z,95549.00
2022-09-17T23:49:31.789Z,95549.00
2022-09-17T23:54:59.529Z,95554.00
